createdAt,value
2022-10-19T00:21:54.496Z,12.00
2022-10-19T00:51:58.103Z,9.67
2022-10-19T01:22:01.629Z,10.13
2022-10-19T01:52:04.892Z,8.60
2022-10-19T02:22:08.350Z,7.10
2022-10-19T02:52:11.906Z,5.30
2022-10-19T03:22:15.221Z,5.25
2022-10-19T03:52:18.365Z,4.10
2022-10-19T04:22:21.730Z,3.25
2022-10-19T04:52:24.908Z,3.00
2022-10-19T05:22:28.402Z,3.50
2022-10-19T05:52:31.921Z,3.43
2022-10-19T06:22:36.238Z,3.23
2022-10-19T06:52:39.634Z,1.47
2022-10-19T07:22:43.044Z,1.80
2022-10-19T07:52:46.259Z,2.17
2022-10-19T08:22:52.024Z,1.70
2022-10-19T08:52:58.176Z,2.00
2022-10-19T09:23:01.697Z,1.80
2022-10-19T09:53:04.855Z,1.87
2022-10-19T10:23:08.699Z,0.97
2022-10-19T10:53:11.849Z,1.00
2022-10-19T11:23:16.135Z,0.40
2022-10-19T11:53:29.117Z,1.10
2022-10-19T12:23:33.761Z,1.15
2022-10-19T12:53:36.462Z,0.60
2022-10-19T13:23:40.106Z,0.57
2022-10-19T13:53:42.972Z,0.60
2022-10-19T14:53:50.249Z,0.60
2022-10-19T15:23:53.329Z,1.37
2022-10-19T15:53:56.393Z,1.20
2022-10-19T16:23:59.834Z,2.40
2022-10-19T16:54:03.004Z,1.73
2022-10-19T17:24:07.112Z,2.67
2022-10-19T17:54:10.235Z,2.90
2022-10-19T18:24:15.330Z,3.70
2022-10-19T18:54:18.936Z,3.17
2022-10-19T19:24:22.386Z,3.73
2022-10-19T19:54:25.668Z,4.83
2022-10-19T20:24:30.361Z,7.17
2022-10-19T20:54:35.833Z,6.33
2022-10-19T21:24:42.279Z,8.20
2022-10-19T21:54:45.347Z,8.57
2022-10-19T22:24:48.186Z,6.87
2022-10-19T22:54:51.479Z,8.47
2022-10-19T23:24:55.001Z,7.35
2022-10-19T23:54:58.462Z,7.83
